»·PEaware :: DAL1782 KSLC-KEGE

DAL1782 :: KSLC-KEGE

FLIGHT INFORMATION

Flight Status: Arrived
Operator:
Delta Air Lines
More flights by this operator :: More flights under this callsign
Pilot: Patricio R. (14780)
Aircraft: BOEING 737-200
(B732)
More flights by this aircraft type
Origin: KSLC Salt Lake City Intl
United States
Destination: KEGE Eagle Co Regl
United States
More flights between these airports :: More routes between these airports
Route: +SLC4 MTU V200 RLG
File this flight plan on PilotEdge
Remarks:
Altitude:
(Current/Filed)
29,000ft
Speed:
(Current/Filed)
433kts
Departed: 01-May-18 01:27 PM
Arrived: 01-May-18 02:24 PM
Distance/Time
Traveled:
242nm/0:57
Distance/Time
To Go:
Arrived

Flight Plot

Page will automatically refresh every two minutes.

Flight plan parsing failed; only flown route is shown


Map Options




Map Legend


Flown Route
Filed Route
Departure Airport
Arrival Airport
Navaid (VOR, NDB)
Fix

Horizontal Profiles

Position Reports

Time Latitude Longitude Heading Altitude Ground
Speed
01-May-18 13:05 40.789080 -111.980792 229 4236ft 0kts
01-May-18 13:06 40.789080 -111.980792 229 4236ft 0kts
01-May-18 13:07 40.789080 -111.980792 229 4236ft 0kts
01-May-18 13:08 40.789080 -111.980793 229 4236ft 0kts
01-May-18 13:09 40.789080 -111.980793 229 4236ft 0kts
01-May-18 13:10 40.789080 -111.980793 229 4236ft 0kts
01-May-18 13:11 40.789080 -111.980793 229 4236ft 0kts
01-May-18 13:12 40.789080 -111.980793 229 4236ft 0kts
01-May-18 13:13 40.789080 -111.980793 229 4236ft 0kts
01-May-18 13:14 40.789080 -111.980793 229 4236ft 0kts
01-May-18 13:15 40.789080 -111.980793 229 4236ft 0kts
01-May-18 13:16 40.789172 -111.980653 229 4236ft 2kts
01-May-18 13:17 40.789527 -111.980113 228 4236ft 1kts
01-May-18 13:18 40.789974 -111.980297 96 4236ft 2kts
01-May-18 13:19 40.789974 -111.980390 86 4236ft 0kts
01-May-18 13:20 40.789974 -111.980390 86 4236ft 0kts
01-May-18 13:21 40.790251 -111.977470 105 4236ft 8kts
01-May-18 13:22 40.784255 -111.976417 174 4236ft 26kts
01-May-18 13:23 40.777709 -111.975150 174 4236ft 19kts
01-May-18 13:24 40.774725 -111.974756 159 4236ft 0kts
01-May-18 13:25 40.774586 -111.974631 134 4236ft 8kts
01-May-18 13:26 40.785793 -111.974425 354 4237ft 143kts
01-May-18 13:27 40.836851 -111.979945 354 6596ft 209kts
01-May-18 13:28 40.899819 -111.986655 354 9222ft 241kts
01-May-18 13:29 40.968887 -111.994987 354 11760ft 265kts
01-May-18 13:30 41.046546 -112.004091 354 13941ft 292kts
01-May-18 13:31 41.100253 -111.946971 89 15984ft 298kts
01-May-18 13:33 41.055097 -111.861061 141 17309ft 322kts
01-May-18 13:34 41.002669 -111.762698 126 19205ft 334kts
01-May-18 13:35 40.950579 -111.659636 126 20947ft 341kts
01-May-18 13:36 40.898948 -111.558253 126 22445ft 348kts
01-May-18 13:37 40.843634 -111.453290 127 23846ft 355kts
01-May-18 13:38 40.788196 -111.344638 127 25076ft 362kts
01-May-18 13:39 40.731718 -111.235151 128 26216ft 367kts
01-May-18 13:40 40.673281 -111.122400 129 27115ft 376kts
01-May-18 13:41 40.613791 -111.007786 129 27994ft 382kts
01-May-18 13:42 40.553588 -110.892162 130 28788ft 387kts
01-May-18 13:43 40.490953 -110.772522 129 28880ft 410kts
01-May-18 13:44 40.425484 -110.647701 130 28893ft 419kts
01-May-18 13:45 40.358543 -110.520948 130 28894ft 426kts
01-May-18 13:46 40.290894 -110.392721 130 28893ft 431kts
01-May-18 13:47 40.223069 -110.264708 132 28885ft 434kts
01-May-18 13:48 40.155446 -110.133862 132 28885ft 437kts
01-May-18 13:49 40.105647 -109.989043 94 28896ft 471kts
01-May-18 13:50 40.136376 -109.820384 93 28915ft 472kts
01-May-18 13:51 40.135386 -109.649012 98 28889ft 472kts
01-May-18 13:52 40.130609 -109.477789 98 28891ft 474kts
01-May-18 13:53 40.125169 -109.311695 99 28882ft 475kts
01-May-18 13:54 40.113041 -109.141023 102 28884ft 474kts
01-May-18 13:55 40.105328 -108.968604 99 28885ft 477kts
01-May-18 13:56 40.099649 -108.795677 99 28887ft 479kts
01-May-18 13:57 40.094080 -108.624094 99 28862ft 451kts
01-May-18 13:58 40.088731 -108.467997 99 27490ft 421kts
01-May-18 13:59 40.083581 -108.326456 100 25883ft 403kts
01-May-18 14:00 40.077841 -108.183522 99 24097ft 388kts
01-May-18 14:01 40.072452 -108.045475 99 23941ft 392kts
01-May-18 14:02 40.066952 -107.905095 98 23940ft 417kts
01-May-18 14:03 40.060676 -107.750682 98 23939ft 437kts
01-May-18 14:04 40.054746 -107.604237 98 23447ft 382kts
01-May-18 14:05 40.048865 -107.467982 98 21654ft 371kts
01-May-18 14:06 40.040241 -107.340627 103 20000ft 356kts
01-May-18 14:07 40.039227 -107.214624 96 18362ft 347kts
01-May-18 14:08 40.035107 -107.091096 97 16669ft 337kts
01-May-18 14:09 40.029720 -106.971026 97 15048ft 329kts
01-May-18 14:10 40.024003 -106.851931 97 14987ft 327kts
01-May-18 14:11 40.018154 -106.734429 97 14365ft 325kts
01-May-18 14:12 40.012134 -106.617066 97 13998ft 322kts
01-May-18 14:12 39.987912 -106.532286 152 13815ft 298kts
01-May-18 14:13 39.915293 -106.493744 163 13800ft 274kts
01-May-18 14:14 39.847203 -106.508243 199 13804ft 257kts
01-May-18 14:15 39.779878 -106.535990 199 13651ft 247kts
01-May-18 14:16 39.716520 -106.563341 200 12925ft 222kts
01-May-18 14:17 39.682961 -106.610103 264 12300ft 235kts
01-May-18 14:18 39.674742 -106.692680 258 10715ft 212kts
01-May-18 14:19 39.665379 -106.758132 257 9366ft 160kts
01-May-18 14:20 39.656692 -106.809452 256 8317ft 135kts
01-May-18 14:21 39.649225 -106.855956 264 7495ft 132kts
01-May-18 14:22 39.644429 -106.902005 264 6615ft 127kts
01-May-18 14:23 39.642026 -106.923800 261 6554ft 9kts
01-May-18 14:24 39.641214 -106.920767 81 6554ft 18kts
01-May-18 14:25 39.640698 -106.916294 171 6554ft 5kts
01-May-18 14:26 39.640411 -106.916241 172 6554ft 0kts
01-May-18 14:27 39.640411 -106.916241 172 6554ft 0kts

Navigation Log

Ident Type
Flight plan parsing failed, navigation log unavailable